createdAt,value
2018-11-07T00:01:18.354Z,76.72
2018-11-07T00:03:47.689Z,76.20
2018-11-07T00:06:16.783Z,75.90
2018-11-07T00:08:45.854Z,75.98
2018-11-07T00:11:14.927Z,75.90
2018-11-07T00:13:43.977Z,76.76
2018-11-07T00:16:13.223Z,77.08
2018-11-07T00:18:42.267Z,77.67
2018-11-07T00:21:11.310Z,76.23
2018-11-07T00:23:40.345Z,77.40
2018-11-07T00:26:09.421Z,76.28
2018-11-07T00:28:38.482Z,77.65
2018-11-07T00:31:07.776Z,76.53
2018-11-07T00:33:36.828Z,77.11
2018-11-07T00:36:06.447Z,76.15
2018-11-07T00:38:35.498Z,76.96
2018-11-07T00:41:04.563Z,76.03
2018-11-07T00:43:33.620Z,76.15
2018-11-07T00:46:02.706Z,76.94
2018-11-07T00:48:31.742Z,76.88
2018-11-07T00:51:00.795Z,75.97
2018-11-07T00:53:29.868Z,75.40
2018-11-07T00:56:01.747Z,76.25
2018-11-07T00:58:30.849Z,75.74
2018-11-07T01:00:59.890Z,76.26
2018-11-07T01:03:29.054Z,76.30
2018-11-07T01:05:59.137Z,76.60
2018-11-07T01:08:28.178Z,77.05
2018-11-07T01:10:57.209Z,76.15
2018-11-07T01:13:26.273Z,76.46
2018-11-07T01:15:55.353Z,76.96
2018-11-07T01:18:24.408Z,77.00
2018-11-07T01:20:53.470Z,76.52
2018-11-07T01:23:22.523Z,75.71
2018-11-07T01:25:51.609Z,77.25
2018-11-07T01:28:20.674Z,77.66
2018-11-07T01:30:49.732Z,76.67
2018-11-07T01:33:18.766Z,76.66
2018-11-07T01:35:47.817Z,76.75
2018-11-07T01:38:16.858Z,78.05
2018-11-07T01:40:45.935Z,76.88
2018-11-07T01:43:14.980Z,75.79
2018-11-07T01:45:44.080Z,76.86
2018-11-07T01:48:13.221Z,77.56
2018-11-07T01:50:42.309Z,77.59
2018-11-07T01:53:11.391Z,77.09
2018-11-07T01:55:40.441Z,76.20
2018-11-07T01:58:09.465Z,77.56
2018-11-07T02:00:38.567Z,76.77
2018-11-07T02:03:07.629Z,76.88
2018-11-07T02:05:36.662Z,77.37
2018-11-07T02:08:06.687Z,76.48
2018-11-07T02:10:35.758Z,77.25
2018-11-07T02:13:05.173Z,76.80
2018-11-07T02:15:34.241Z,76.86
2018-11-07T02:18:03.320Z,77.04
2018-11-07T02:20:32.381Z,77.02
2018-11-07T02:23:01.486Z,76.63
2018-11-07T02:25:30.563Z,76.37
2018-11-07T02:27:59.653Z,77.21
2018-11-07T02:30:29.578Z,75.88
2018-11-07T02:32:58.633Z,76.02
2018-11-07T02:35:27.703Z,77.20
2018-11-07T02:37:56.773Z,77.15
2018-11-07T02:40:25.852Z,76.46
2018-11-07T02:42:54.893Z,76.01
2018-11-07T02:45:23.967Z,75.94
2018-11-07T02:47:53.003Z,76.61
2018-11-07T02:50:22.109Z,76.72
2018-11-07T02:52:51.188Z,76.45
2018-11-07T02:55:20.252Z,76.28
2018-11-07T02:57:49.331Z,76.87
2018-11-07T03:00:18.450Z,76.69
2018-11-07T03:02:47.493Z,77.08
2018-11-07T03:05:16.553Z,77.15
2018-11-07T03:07:45.621Z,77.31
2018-11-07T03:10:14.721Z,77.34
2018-11-07T03:12:45.152Z,77.67
2018-11-07T03:15:14.261Z,78.12
2018-11-07T03:17:43.337Z,77.12
2018-11-07T03:20:13.734Z,77.30
2018-11-07T03:22:42.905Z,77.03
2018-11-07T03:25:11.990Z,77.69
2018-11-07T03:27:41.043Z,78.21
2018-11-07T03:30:10.409Z,77.22
2018-11-07T03:32:39.583Z,76.95
2018-11-07T03:35:39.503Z,77.71
2018-11-07T03:38:08.553Z,77.89
2018-11-07T03:40:37.622Z,77.18
2018-11-07T03:43:06.797Z,77.06
2018-11-07T03:45:41.194Z,77.37
2018-11-07T03:48:10.234Z,77.47
2018-11-07T03:53:26.690Z,78.48
2018-11-07T03:55:55.932Z,78.27
2018-11-07T03:58:24.997Z,77.30
2018-11-07T04:00:54.954Z,76.95
2018-11-07T04:03:24.115Z,77.37
2018-11-07T04:05:53.170Z,76.58
2018-11-07T04:08:22.235Z,78.09
2018-11-07T04:10:51.294Z,78.03
2018-11-07T04:13:20.390Z,77.74
2018-11-07T04:15:49.391Z,77.73
2018-11-07T04:18:18.481Z,77.61
2018-11-07T04:20:47.505Z,78.16
2018-11-07T04:23:16.567Z,77.47
2018-11-07T04:25:45.669Z,77.07
2018-11-07T04:28:14.740Z,76.73
2018-11-07T04:30:43.765Z,77.17
2018-11-07T04:33:12.811Z,77.96
2018-11-07T04:35:41.892Z,77.17
2018-11-07T04:38:10.934Z,77.88
2018-11-07T04:40:40.191Z,78.80
2018-11-07T04:43:09.233Z,79.54
2018-11-07T04:45:38.311Z,78.25
2018-11-07T04:48:07.382Z,78.78
2018-11-07T04:50:37.434Z,78.43
2018-11-07T04:53:06.473Z,78.81
2018-11-07T04:55:35.552Z,80.26
2018-11-07T04:58:04.642Z,78.57
2018-11-07T05:00:33.720Z,78.95
2018-11-07T05:03:02.801Z,78.10
2018-11-07T05:05:32.810Z,78.50
2018-11-07T05:08:01.834Z,78.08
2018-11-07T05:10:30.886Z,79.31
2018-11-07T05:12:59.921Z,78.67
2018-11-07T05:15:29.029Z,79.05
2018-11-07T05:17:58.100Z,79.85
2018-11-07T05:20:27.217Z,79.07
2018-11-07T05:22:56.812Z,79.32
2018-11-07T05:25:25.900Z,80.39
2018-11-07T05:27:54.987Z,79.51
2018-11-07T05:30:24.081Z,80.28
2018-11-07T05:32:53.163Z,79.76
2018-11-07T05:35:22.337Z,80.09
2018-11-07T05:37:51.403Z,79.51
2018-11-07T05:40:20.512Z,79.74
2018-11-07T05:42:49.991Z,79.62
2018-11-07T05:45:19.082Z,80.83
2018-11-07T05:47:48.094Z,79.71
2018-11-07T05:50:17.146Z,80.49
2018-11-07T05:52:46.407Z,80.15
2018-11-07T05:55:15.446Z,79.75
2018-11-07T05:57:44.479Z,78.99
2018-11-07T06:00:13.575Z,79.72
2018-11-07T06:02:42.628Z,79.43
2018-11-07T06:05:12.508Z,80.10
2018-11-07T06:07:42.160Z,80.48
2018-11-07T06:10:12.936Z,81.30
2018-11-07T06:12:42.346Z,80.55
2018-11-07T06:15:12.140Z,78.78
2018-11-07T06:17:41.187Z,80.03
2018-11-07T06:20:11.108Z,80.19
2018-11-07T06:22:40.189Z,80.69
2018-11-07T06:25:15.172Z,82.08
2018-11-07T06:27:45.379Z,82.06
2018-11-07T06:30:15.420Z,81.59
2018-11-07T06:32:45.545Z,82.20
2018-11-07T06:35:14.612Z,81.36
2018-11-07T06:37:44.657Z,81.99
2018-11-07T06:40:13.712Z,81.08
2018-11-07T06:42:42.787Z,81.64
2018-11-07T06:45:12.043Z,81.61
2018-11-07T06:47:41.113Z,82.11
2018-11-07T06:50:12.980Z,81.08
2018-11-07T06:52:42.177Z,81.70
2018-11-07T06:55:11.917Z,81.72
2018-11-07T06:57:41.022Z,80.73
2018-11-07T07:00:12.801Z,81.37
2018-11-07T07:02:42.187Z,81.09
2018-11-07T07:05:11.240Z,80.45
2018-11-07T07:07:41.202Z,81.17
2018-11-07T07:10:16.027Z,81.09
2018-11-07T07:12:45.598Z,80.64
2018-11-07T07:15:16.880Z,80.57
2018-11-07T07:17:46.179Z,80.71
2018-11-07T07:20:18.555Z,80.66
2018-11-07T07:22:50.902Z,80.82
2018-11-07T07:25:26.622Z,80.73
2018-11-07T07:27:57.147Z,80.98
2018-11-07T07:30:33.101Z,80.77
2018-11-07T07:33:03.357Z,80.67
2018-11-07T07:35:32.314Z,81.35
2018-11-07T07:38:01.505Z,81.28
2018-11-07T07:40:32.543Z,80.98
2018-11-07T07:43:01.692Z,80.48
2018-11-07T07:45:30.877Z,80.60
2018-11-07T07:47:59.881Z,81.71
2018-11-07T07:50:28.950Z,81.13
2018-11-07T07:53:03.101Z,80.97
2018-11-07T07:55:33.137Z,80.60
2018-11-07T07:58:03.269Z,80.47
2018-11-07T08:00:33.973Z,79.96
2018-11-07T08:03:03.069Z,80.53
2018-11-07T08:05:32.178Z,80.38
2018-11-07T08:08:01.311Z,80.24
2018-11-07T08:10:30.390Z,80.75
2018-11-07T08:12:59.966Z,80.11
2018-11-07T08:15:29.169Z,79.91
2018-11-07T08:17:58.211Z,79.89
2018-11-07T08:20:27.274Z,79.80
2018-11-07T08:22:56.451Z,79.25
2018-11-07T08:27:10.731Z,79.59
2018-11-07T08:29:39.901Z,79.47
2018-11-07T08:32:08.958Z,79.36
2018-11-07T08:34:38.866Z,79.63
2018-11-07T08:37:08.629Z,79.11
2018-11-07T08:39:38.600Z,78.72
2018-11-07T08:42:07.708Z,78.83
2018-11-07T08:44:38.282Z,78.78
2018-11-07T08:47:09.278Z,78.82
2018-11-07T08:49:39.157Z,77.90
2018-11-07T08:52:08.220Z,77.92
2018-11-07T08:54:43.410Z,77.81
2018-11-07T08:57:12.563Z,78.04
2018-11-07T08:59:41.638Z,77.19
2018-11-07T09:02:10.731Z,76.92
2018-11-07T09:04:39.742Z,77.16
2018-11-07T09:07:08.789Z,76.30
2018-11-07T09:09:37.899Z,75.19
2018-11-07T09:12:07.180Z,75.46
2018-11-07T09:14:36.197Z,76.40
2018-11-07T09:17:05.384Z,75.93
2018-11-07T09:19:34.453Z,75.66
2018-11-07T09:22:03.619Z,74.89
2018-11-07T09:24:33.553Z,76.22
2018-11-07T09:27:02.565Z,74.08
2018-11-07T09:29:31.663Z,74.01
2018-11-07T09:32:00.805Z,74.18
2018-11-07T09:34:30.076Z,73.80
2018-11-07T09:36:59.113Z,73.51
2018-11-07T09:39:28.169Z,74.34
2018-11-07T09:41:57.263Z,72.28
2018-11-07T09:44:26.301Z,73.57
2018-11-07T09:46:56.870Z,72.92
2018-11-07T09:49:26.030Z,71.90
2018-11-07T09:51:55.067Z,71.24
2018-11-07T09:54:24.208Z,69.75
2018-11-07T09:56:53.280Z,70.33
2018-11-07T09:59:22.420Z,70.85
2018-11-07T10:01:51.451Z,69.58
2018-11-07T10:04:20.574Z,69.36
2018-11-07T10:06:50.097Z,69.56
2018-11-07T10:09:19.209Z,69.24
2018-11-07T10:11:48.340Z,68.12
2018-11-07T10:14:17.422Z,68.14
2018-11-07T10:16:47.398Z,67.88
2018-11-07T10:19:16.511Z,68.83
2018-11-07T10:21:45.610Z,67.79
2018-11-07T10:24:14.628Z,69.30
2018-11-07T10:26:44.160Z,68.70
2018-11-07T10:29:13.309Z,70.10
2018-11-07T10:31:43.209Z,68.53
2018-11-07T10:34:12.324Z,66.62
2018-11-07T10:36:41.891Z,68.00
2018-11-07T10:39:11.538Z,67.25
2018-11-07T10:41:40.623Z,67.96
2018-11-07T10:44:09.700Z,66.42
2018-11-07T10:46:39.470Z,67.70
2018-11-07T10:49:08.577Z,64.91
2018-11-07T10:51:37.717Z,67.39
2018-11-07T10:54:07.759Z,66.30
2018-11-07T10:56:37.483Z,66.12
2018-11-07T10:59:06.586Z,66.41
2018-11-07T11:01:43.595Z,65.89
2018-11-07T11:04:12.735Z,64.80
2018-11-07T11:06:45.178Z,67.31
2018-11-07T11:09:15.028Z,64.99
2018-11-07T11:11:44.134Z,65.46
2018-11-07T11:14:13.299Z,65.93
2018-11-07T11:16:42.386Z,65.13
2018-11-07T11:19:11.463Z,64.62
2018-11-07T11:21:40.573Z,65.95
2018-11-07T11:24:09.695Z,66.36
2018-11-07T11:26:38.791Z,66.11
2018-11-07T11:29:08.252Z,66.13
2018-11-07T11:31:37.587Z,65.66
2018-11-07T11:34:06.732Z,65.84
2018-11-07T11:36:35.691Z,65.99
2018-11-07T11:39:06.613Z,65.68
2018-11-07T11:41:35.671Z,64.98
2018-11-07T11:44:05.255Z,65.39
2018-11-07T11:46:34.483Z,65.73
2018-11-07T11:49:07.456Z,64.66
2018-11-07T11:51:36.506Z,66.11
2018-11-07T11:54:06.872Z,66.56
2018-11-07T11:56:36.013Z,65.58
2018-11-07T11:59:05.251Z,65.31
2018-11-07T12:01:34.223Z,65.45
2018-11-07T12:04:03.362Z,66.17
2018-11-07T12:06:32.449Z,65.24
2018-11-07T12:09:02.140Z,65.82
2018-11-07T12:11:31.088Z,66.46
2018-11-07T12:14:00.929Z,66.24
2018-11-07T12:16:30.340Z,65.20
2018-11-07T12:18:59.428Z,65.61
2018-11-07T12:21:28.535Z,65.85
2018-11-07T12:23:57.532Z,65.83
2018-11-07T12:26:26.633Z,66.41
2018-11-07T12:28:55.709Z,67.15
2018-11-07T12:31:24.762Z,66.04
2018-11-07T12:33:53.854Z,67.01
2018-11-07T12:36:22.973Z,66.31
2018-11-07T12:38:52.038Z,65.94
2018-11-07T12:41:23.136Z,66.97
2018-11-07T12:43:52.264Z,66.21
2018-11-07T12:46:22.186Z,65.62
2018-11-07T12:48:53.631Z,66.00
2018-11-07T12:51:36.907Z,65.97
2018-11-07T12:54:09.443Z,65.51
2018-11-07T12:56:38.550Z,66.13
2018-11-07T12:59:07.690Z,65.77
2018-11-07T13:01:37.752Z,65.56
2018-11-07T13:04:08.868Z,63.60
2018-11-07T13:06:37.946Z,65.83
2018-11-07T13:09:08.948Z,64.12
2018-11-07T13:11:43.760Z,64.87
2018-11-07T13:14:12.826Z,63.09
2018-11-07T13:16:41.971Z,63.40
2018-11-07T13:19:11.126Z,64.64
2018-11-07T13:21:41.311Z,63.28
2018-11-07T13:24:11.038Z,64.13
2018-11-07T13:26:41.137Z,64.69
2018-11-07T13:29:11.446Z,63.65
2018-11-07T13:31:47.092Z,64.60
2018-11-07T13:34:16.203Z,64.50
2018-11-07T13:36:46.489Z,63.05
2018-11-07T13:39:15.899Z,64.36
2018-11-07T13:41:44.672Z,64.87
2018-11-07T13:44:13.734Z,64.50
2018-11-07T13:46:42.803Z,65.77
2018-11-07T13:49:11.846Z,66.01
2018-11-07T13:51:40.907Z,66.16
2018-11-07T13:54:09.984Z,67.54
2018-11-07T13:56:39.081Z,68.17
2018-11-07T13:59:10.445Z,68.44
2018-11-07T14:01:39.520Z,68.77
2018-11-07T14:04:08.595Z,69.76
2018-11-07T14:06:37.656Z,70.26
2018-11-07T14:09:08.950Z,71.85
2018-11-07T14:11:38.038Z,71.71
2018-11-07T14:14:07.275Z,74.08
2018-11-07T14:16:36.441Z,72.11
2018-11-07T14:19:06.311Z,73.74
2018-11-07T14:21:35.342Z,74.79
2018-11-07T14:24:05.022Z,74.98
2018-11-07T14:26:34.832Z,74.42
2018-11-07T14:29:03.891Z,75.09
2018-11-07T14:31:33.334Z,75.77
2018-11-07T14:34:03.850Z,75.71
2018-11-07T14:36:34.026Z,76.45
2018-11-07T14:39:03.830Z,78.82
2018-11-07T14:41:32.852Z,79.77
2018-11-07T14:44:01.936Z,78.24
2018-11-07T14:46:30.990Z,77.57
2018-11-07T14:49:00.022Z,78.18
2018-11-07T14:51:29.075Z,78.31
2018-11-07T14:53:58.215Z,77.12
2018-11-07T14:56:27.231Z,79.75
2018-11-07T14:58:56.266Z,77.80
2018-11-07T15:01:25.363Z,79.64
2018-11-07T15:03:54.406Z,80.81
2018-11-07T15:06:23.457Z,77.91
2018-11-07T15:08:52.602Z,78.74
2018-11-07T15:11:21.665Z,81.22
2018-11-07T15:13:50.723Z,81.04
2018-11-07T15:16:19.765Z,79.60
2018-11-07T15:18:48.775Z,81.95
2018-11-07T15:21:17.840Z,82.01
2018-11-07T15:23:46.833Z,80.94
2018-11-07T15:26:15.916Z,83.94
2018-11-07T15:28:44.970Z,82.97
2018-11-07T15:31:14.641Z,79.62
2018-11-07T15:33:44.122Z,82.24
2018-11-07T15:36:13.375Z,82.62
2018-11-07T15:38:42.316Z,83.80
2018-11-07T15:41:11.378Z,84.13
2018-11-07T15:43:42.002Z,82.85
2018-11-07T15:46:11.073Z,83.69
2018-11-07T15:48:40.678Z,83.88
2018-11-07T15:54:12.003Z,83.63
2018-11-07T15:56:41.146Z,83.63
2018-11-07T15:59:10.249Z,83.41
2018-11-07T16:01:39.541Z,84.65
2018-11-07T16:04:09.682Z,83.95
2018-11-07T16:06:38.816Z,84.03
2018-11-07T16:09:09.598Z,82.87
2018-11-07T16:11:38.694Z,84.73
2018-11-07T16:14:07.806Z,84.01
2018-11-07T16:16:36.884Z,84.66
2018-11-07T16:19:06.917Z,84.55
2018-11-07T16:21:35.958Z,85.46
2018-11-07T16:24:06.109Z,84.30
2018-11-07T16:26:34.998Z,84.22
2018-11-07T16:29:04.102Z,83.83
2018-11-07T16:31:33.210Z,86.70
2018-11-07T16:34:02.243Z,84.32
2018-11-07T16:36:31.323Z,84.97
2018-11-07T16:39:00.402Z,86.23
2018-11-07T16:41:29.581Z,85.16
2018-11-07T16:43:58.526Z,84.72
2018-11-07T16:46:28.630Z,84.57
2018-11-07T16:48:57.691Z,83.72
2018-11-07T16:51:26.811Z,86.01
2018-11-07T16:53:55.898Z,84.47
2018-11-07T16:56:25.228Z,83.91
2018-11-07T16:58:54.288Z,84.43
2018-11-07T17:01:23.327Z,85.66
2018-11-07T17:03:52.883Z,84.69
2018-11-07T17:06:21.959Z,84.65
2018-11-07T17:08:51.000Z,84.37
2018-11-07T17:11:20.047Z,84.14
2018-11-07T17:13:49.067Z,85.60
2018-11-07T17:16:18.121Z,85.07
2018-11-07T17:18:47.192Z,85.21
2018-11-07T17:21:16.275Z,82.91
2018-11-07T17:23:45.343Z,83.55
2018-11-07T17:26:14.402Z,84.20
2018-11-07T17:28:43.431Z,83.90
2018-11-07T17:31:12.504Z,85.24
2018-11-07T17:33:41.546Z,84.10
2018-11-07T17:36:10.616Z,85.10
2018-11-07T17:38:39.710Z,84.92
2018-11-07T17:41:09.335Z,84.29
2018-11-07T17:43:38.409Z,84.02
2018-11-07T17:46:07.596Z,85.30
2018-11-07T17:48:36.997Z,84.22
2018-11-07T17:51:06.159Z,84.87
2018-11-07T17:53:35.232Z,84.72
2018-11-07T17:56:04.319Z,83.53
2018-11-07T17:58:33.389Z,83.67
2018-11-07T18:01:02.483Z,83.63
2018-11-07T18:03:31.806Z,83.82
2018-11-07T18:06:00.953Z,84.18
2018-11-07T18:08:30.026Z,83.58
2018-11-07T18:10:59.129Z,84.44
2018-11-07T18:13:28.222Z,83.78
2018-11-07T18:15:57.673Z,83.64
2018-11-07T18:18:26.796Z,83.82
2018-11-07T18:20:56.435Z,83.79
2018-11-07T18:23:26.129Z,83.67
2018-11-07T18:25:55.228Z,84.60
2018-11-07T18:28:24.292Z,83.94
2018-11-07T18:30:53.382Z,83.69
2018-11-07T18:33:22.512Z,84.41
2018-11-07T18:35:51.582Z,84.61
2018-11-07T18:38:20.693Z,83.71
2018-11-07T18:40:49.813Z,83.64
2018-11-07T18:43:18.962Z,83.90
2018-11-07T18:45:47.860Z,83.28
2018-11-07T18:48:16.910Z,83.30
2018-11-07T18:50:46.045Z,83.50
2018-11-07T18:53:15.604Z,83.26
2018-11-07T18:55:44.645Z,83.65
2018-11-07T18:58:14.053Z,83.66
2018-11-07T19:00:43.248Z,84.31
2018-11-07T19:03:12.259Z,84.49
2018-11-07T19:05:42.318Z,83.41
2018-11-07T19:08:11.384Z,82.90
2018-11-07T19:10:40.786Z,83.63
2018-11-07T19:13:09.830Z,83.62
2018-11-07T19:15:38.885Z,83.64
2018-11-07T19:18:07.951Z,83.28
2018-11-07T19:20:37.189Z,82.98
2018-11-07T19:23:06.274Z,83.40
2018-11-07T19:25:35.317Z,83.33
2018-11-07T19:28:05.579Z,84.42
2018-11-07T19:30:35.465Z,83.74
2018-11-07T19:33:04.621Z,82.87
2018-11-07T19:35:33.613Z,83.73
2018-11-07T19:38:02.656Z,83.87
2018-11-07T19:40:31.742Z,83.41
2018-11-07T19:43:00.774Z,83.20
2018-11-07T19:45:29.892Z,83.56
2018-11-07T19:48:00.819Z,84.56
2018-11-07T19:50:29.911Z,84.19
2018-11-07T19:52:58.976Z,83.00
2018-11-07T19:55:28.062Z,83.75
2018-11-07T19:58:01.910Z,83.12
2018-11-07T20:00:31.011Z,83.26
2018-11-07T20:03:00.062Z,82.63
2018-11-07T20:05:29.152Z,83.29
2018-11-07T20:07:58.484Z,82.98
2018-11-07T20:10:27.824Z,83.25
2018-11-07T20:12:56.837Z,83.85
2018-11-07T20:15:26.110Z,84.06
2018-11-07T20:17:55.190Z,83.43
2018-11-07T20:20:25.178Z,83.83
2018-11-07T20:22:54.498Z,82.24
2018-11-07T20:25:23.538Z,82.97
2018-11-07T20:27:52.607Z,83.84
2018-11-07T20:30:22.306Z,83.59
2018-11-07T20:32:51.436Z,83.44
2018-11-07T20:35:21.377Z,83.67
2018-11-07T20:37:50.338Z,83.10
2018-11-07T20:40:20.709Z,83.12
2018-11-07T20:42:49.760Z,83.41
2018-11-07T20:45:19.243Z,83.90
2018-11-07T20:47:48.305Z,83.45
2018-11-07T20:50:19.278Z,82.77
2018-11-07T20:52:48.674Z,83.50
2018-11-07T20:55:18.081Z,83.31
2018-11-07T20:57:47.225Z,82.95
2018-11-07T21:00:19.377Z,82.14
2018-11-07T21:02:48.747Z,82.47
2018-11-07T21:05:18.040Z,82.86
2018-11-07T21:07:47.111Z,83.06
2018-11-07T21:10:21.279Z,83.06
2018-11-07T21:12:50.915Z,82.46
2018-11-07T21:15:20.876Z,83.58
2018-11-07T21:17:50.810Z,82.51
2018-11-07T21:20:19.945Z,83.22
2018-11-07T21:22:48.955Z,83.05
2018-11-07T21:25:18.026Z,83.95
2018-11-07T21:27:47.497Z,84.22
2018-11-07T21:30:16.581Z,82.52
2018-11-07T21:32:45.822Z,82.95
2018-11-07T21:35:14.992Z,82.80
2018-11-07T21:37:43.994Z,83.96
2018-11-07T21:40:15.018Z,84.64
2018-11-07T21:42:44.639Z,83.48
2018-11-07T21:45:14.345Z,83.55
2018-11-07T21:47:43.731Z,84.21
2018-11-07T21:50:14.406Z,83.89
2018-11-07T21:52:43.465Z,84.33
2018-11-07T21:55:12.535Z,83.39
2018-11-07T21:57:41.633Z,83.06
2018-11-07T22:00:14.984Z,83.49
2018-11-07T22:02:44.243Z,83.67
2018-11-07T22:05:13.871Z,83.57
2018-11-07T22:07:43.785Z,83.54
2018-11-07T22:10:13.906Z,83.76
2018-11-07T22:12:42.965Z,83.50
2018-11-07T22:15:12.011Z,83.87
2018-11-07T22:17:41.264Z,84.25
2018-11-07T22:20:13.272Z,84.65
2018-11-07T22:22:42.482Z,84.04
2018-11-07T22:25:11.589Z,83.67
2018-11-07T22:27:40.778Z,83.85
2018-11-07T22:30:11.499Z,83.22
2018-11-07T22:32:41.229Z,83.49
2018-11-07T22:35:11.946Z,84.17
2018-11-07T22:37:43.282Z,84.06
2018-11-07T22:40:13.855Z,84.41
2018-11-07T22:42:43.190Z,84.59
2018-11-07T22:45:12.821Z,84.14
2018-11-07T22:47:41.900Z,83.72
2018-11-07T22:50:13.181Z,83.62
2018-11-07T22:52:43.174Z,83.91
2018-11-07T22:55:12.253Z,83.66
2018-11-07T22:57:41.281Z,83.94
2018-11-07T23:00:20.927Z,83.67
2018-11-07T23:02:51.683Z,83.25
2018-11-07T23:05:20.766Z,82.75
2018-11-07T23:07:51.511Z,83.15
2018-11-07T23:10:20.546Z,84.15
2018-11-07T23:12:50.117Z,84.42
2018-11-07T23:15:24.515Z,84.76
2018-11-07T23:17:55.463Z,83.62
2018-11-07T23:20:24.493Z,83.83
2018-11-07T23:22:53.571Z,83.10
2018-11-07T23:25:22.645Z,83.43
2018-11-07T23:27:51.736Z,84.21
2018-11-07T23:30:20.799Z,84.24
2018-11-07T23:32:49.843Z,84.04
2018-11-07T23:35:18.914Z,84.07
2018-11-07T23:37:48.004Z,84.85
2018-11-07T23:40:17.062Z,83.89
2018-11-07T23:42:46.132Z,84.55
2018-11-07T23:45:15.228Z,83.95
2018-11-07T23:47:44.307Z,83.16
2018-11-07T23:50:13.358Z,83.79
2018-11-07T23:52:48.758Z,83.06
2018-11-07T23:55:19.202Z,83.08
2018-11-07T23:57:49.829Z,83.94
